createdAt,value
2017-10-09T00:01:30.964Z,90.00
2017-10-09T00:03:59.218Z,90.00
2017-10-09T00:06:28.266Z,89.90
2017-10-09T00:08:56.993Z,89.90
2017-10-09T00:11:25.238Z,89.60
2017-10-09T00:13:53.516Z,89.60
2017-10-09T00:16:21.755Z,89.50
2017-10-09T00:18:50.895Z,89.40
2017-10-09T00:21:19.155Z,89.40
2017-10-09T00:23:48.183Z,89.70
2017-10-09T00:26:17.186Z,89.40
2017-10-09T00:28:45.440Z,89.50
2017-10-09T00:31:13.698Z,89.90
2017-10-09T00:33:42.711Z,90.10
2017-10-09T00:36:11.746Z,90.30
2017-10-09T00:38:40.000Z,90.20
2017-10-09T00:41:08.270Z,90.10
2017-10-09T00:43:37.307Z,90.30
2017-10-09T00:46:05.570Z,90.30
2017-10-09T00:48:33.872Z,90.40
2017-10-09T00:51:02.155Z,90.40
2017-10-09T00:53:30.400Z,90.50
2017-10-09T00:55:58.711Z,90.50
2017-10-09T00:58:26.955Z,90.50
2017-10-09T01:00:55.979Z,90.50
2017-10-09T01:03:24.272Z,90.50
2017-10-09T01:05:52.543Z,90.50
2017-10-09T01:11:00.472Z,90.50
2017-10-09T01:13:29.493Z,90.70
2017-10-09T01:15:57.761Z,90.70
2017-10-09T01:18:26.050Z,90.70
2017-10-09T01:20:54.302Z,90.90
2017-10-09T01:23:22.548Z,90.90
2017-10-09T01:25:50.846Z,91.00
2017-10-09T01:28:19.872Z,91.10
2017-10-09T01:30:48.122Z,91.10
2017-10-09T01:33:16.447Z,91.10
2017-10-09T01:35:46.364Z,91.20
2017-10-09T01:38:14.655Z,91.20
2017-10-09T01:40:42.934Z,91.20
2017-10-09T01:43:11.216Z,91.20
2017-10-09T01:45:40.313Z,91.30
2017-10-09T01:48:08.603Z,91.30
2017-10-09T01:50:37.064Z,91.50
2017-10-09T01:53:05.321Z,91.40
2017-10-09T01:55:34.358Z,91.10
2017-10-09T01:58:02.625Z,91.00
2017-10-09T02:00:30.867Z,91.00
2017-10-09T02:02:59.131Z,91.20
2017-10-09T02:05:27.372Z,91.40
2017-10-09T02:07:55.639Z,91.40
2017-10-09T02:10:23.957Z,91.50
2017-10-09T02:12:53.394Z,91.30
2017-10-09T02:15:21.643Z,91.20
2017-10-09T02:17:49.916Z,91.20
2017-10-09T02:20:18.175Z,91.30
2017-10-09T02:22:47.195Z,91.30
2017-10-09T02:25:15.443Z,91.30
2017-10-09T02:27:44.462Z,91.20
2017-10-09T02:30:12.711Z,91.20
2017-10-09T02:32:40.969Z,91.20
2017-10-09T02:35:09.313Z,91.30
2017-10-09T02:37:37.576Z,91.40
2017-10-09T02:40:05.820Z,91.40
2017-10-09T02:42:34.078Z,91.50
2017-10-09T02:45:02.328Z,91.50
2017-10-09T02:47:30.626Z,91.50
2017-10-09T02:49:58.874Z,91.30
2017-10-09T02:52:27.882Z,91.30
2017-10-09T02:54:56.183Z,91.30
2017-10-09T02:57:24.421Z,91.40
2017-10-09T02:59:53.454Z,91.60
2017-10-09T03:02:21.745Z,91.30
2017-10-09T03:04:50.028Z,91.30
2017-10-09T03:07:18.309Z,91.30
2017-10-09T03:09:46.591Z,91.30
2017-10-09T03:12:14.838Z,91.40
2017-10-09T03:14:43.911Z,91.60
2017-10-09T03:17:13.665Z,91.70
2017-10-09T03:19:41.922Z,91.70
2017-10-09T03:25:14.329Z,91.90
2017-10-09T03:30:42.040Z,92.10
2017-10-09T03:33:10.346Z,92.00
2017-10-09T03:35:38.606Z,91.90
2017-10-09T03:38:06.847Z,91.90
2017-10-09T03:40:35.106Z,92.00
2017-10-09T03:43:03.350Z,92.00
2017-10-09T03:45:31.618Z,91.90
2017-10-09T03:48:00.667Z,92.00
2017-10-09T03:50:28.927Z,92.00
2017-10-09T03:52:57.165Z,92.00
2017-10-09T03:55:25.566Z,92.00
2017-10-09T03:57:54.565Z,92.10
2017-10-09T04:00:23.697Z,92.20
2017-10-09T04:02:51.974Z,92.10
2017-10-09T04:05:20.242Z,92.10
2017-10-09T04:07:48.486Z,92.10
2017-10-09T04:10:17.514Z,92.20
2017-10-09T04:12:45.766Z,91.90
2017-10-09T04:15:14.023Z,91.90
2017-10-09T04:17:42.283Z,91.90
2017-10-09T04:20:10.567Z,91.90
2017-10-09T04:22:38.815Z,91.90
2017-10-09T04:25:07.067Z,91.90
2017-10-09T04:27:36.118Z,92.10
2017-10-09T04:30:04.364Z,92.10
2017-10-09T04:32:33.394Z,92.00
2017-10-09T04:35:01.652Z,92.00
2017-10-09T04:37:30.329Z,92.10
2017-10-09T04:39:59.337Z,92.10
2017-10-09T04:42:27.598Z,92.10
2017-10-09T04:44:56.638Z,92.60
2017-10-09T04:47:24.906Z,92.60
2017-10-09T04:49:53.149Z,92.20
2017-10-09T04:52:21.410Z,92.20
2017-10-09T04:54:49.664Z,92.00
2017-10-09T04:57:17.928Z,91.90
2017-10-09T04:59:46.175Z,92.00
2017-10-09T05:02:15.225Z,92.50
2017-10-09T05:04:43.471Z,92.10
2017-10-09T05:07:12.603Z,92.10
2017-10-09T05:09:40.851Z,92.10
2017-10-09T05:12:09.900Z,92.30
2017-10-09T05:14:38.144Z,92.20
2017-10-09T05:17:06.462Z,92.40
2017-10-09T05:19:34.709Z,92.50
2017-10-09T05:22:02.966Z,92.50
2017-10-09T05:24:32.020Z,92.60
2017-10-09T05:27:00.282Z,92.60
2017-10-09T05:29:28.522Z,92.60
2017-10-09T05:31:56.862Z,92.60
2017-10-09T05:34:25.117Z,92.80
2017-10-09T05:36:53.369Z,93.00
2017-10-09T05:39:22.418Z,93.20
2017-10-09T05:41:50.657Z,93.20
2017-10-09T05:44:19.713Z,93.20
2017-10-09T05:46:48.014Z,93.20
2017-10-09T05:49:16.359Z,93.30
2017-10-09T05:51:44.605Z,93.20
2017-10-09T05:54:13.718Z,92.90
2017-10-09T05:56:41.958Z,92.90
2017-10-09T05:59:17.365Z,93.00
2017-10-09T06:01:47.496Z,93.00
2017-10-09T06:04:15.754Z,93.00
2017-10-09T06:06:44.069Z,93.00
2017-10-09T06:09:12.332Z,92.90
2017-10-09T06:11:40.584Z,92.80
2017-10-09T06:14:09.613Z,92.50
2017-10-09T06:16:37.853Z,92.40
2017-10-09T06:19:06.892Z,92.80
2017-10-09T06:21:35.143Z,92.70
2017-10-09T06:24:03.456Z,92.80
2017-10-09T06:26:31.716Z,92.70
2017-10-09T06:29:00.023Z,92.50
2017-10-09T06:31:28.266Z,92.50
2017-10-09T06:33:57.301Z,92.50
2017-10-09T06:36:25.601Z,92.50
2017-10-09T06:38:53.876Z,92.40
2017-10-09T06:41:22.179Z,92.40
2017-10-09T06:43:50.552Z,92.20
2017-10-09T06:46:18.799Z,92.20
2017-10-09T06:48:47.066Z,92.20
2017-10-09T06:51:15.401Z,92.10
2017-10-09T06:53:43.618Z,91.90
2017-10-09T06:56:11.899Z,91.90
2017-10-09T06:58:40.207Z,91.90
2017-10-09T07:01:08.469Z,91.90
2017-10-09T07:03:36.720Z,91.90
2017-10-09T07:06:05.754Z,92.00
2017-10-09T07:08:34.009Z,91.90
2017-10-09T07:11:03.055Z,91.80
2017-10-09T07:13:31.326Z,91.80
2017-10-09T07:15:59.597Z,91.80
2017-10-09T07:18:27.891Z,91.90
2017-10-09T07:20:56.237Z,92.00
2017-10-09T07:23:24.565Z,91.90
2017-10-09T07:25:52.842Z,91.80
2017-10-09T07:28:21.104Z,91.80
2017-10-09T07:30:49.383Z,91.70
2017-10-09T07:33:17.643Z,91.80
2017-10-09T07:35:46.780Z,91.80
2017-10-09T07:38:15.172Z,91.80
2017-10-09T07:40:43.554Z,91.90
2017-10-09T07:43:11.840Z,91.90
2017-10-09T07:45:40.121Z,91.90
2017-10-09T07:48:08.431Z,91.80
2017-10-09T07:50:36.692Z,91.80
2017-10-09T07:53:04.941Z,91.60
2017-10-09T07:55:33.740Z,91.30
2017-10-09T07:58:02.385Z,91.10
2017-10-09T08:00:30.728Z,90.90
2017-10-09T08:02:59.020Z,90.80
2017-10-09T08:05:27.272Z,90.60
2017-10-09T08:07:55.549Z,90.70
2017-10-09T08:10:23.812Z,90.70
2017-10-09T08:12:52.083Z,90.30
2017-10-09T08:15:21.103Z,90.20
2017-10-09T08:17:49.453Z,90.20
2017-10-09T08:20:18.635Z,88.50
2017-10-09T08:22:46.913Z,88.50
2017-10-09T08:25:16.093Z,88.30
2017-10-09T08:27:44.350Z,87.60
2017-10-09T08:30:12.602Z,86.60
2017-10-09T08:32:41.661Z,87.00
2017-10-09T08:35:09.899Z,87.00
2017-10-09T08:37:38.202Z,87.40
2017-10-09T08:40:06.459Z,87.50
2017-10-09T08:42:34.730Z,87.70
2017-10-09T08:45:02.979Z,87.90
2017-10-09T08:47:32.057Z,88.60
2017-10-09T08:50:00.314Z,88.60
2017-10-09T08:52:28.574Z,89.00
2017-10-09T08:54:56.822Z,90.10
2017-10-09T08:57:25.100Z,89.80
2017-10-09T08:59:53.332Z,88.90
2017-10-09T09:02:21.714Z,88.20
2017-10-09T09:04:49.970Z,87.70
2017-10-09T09:07:18.257Z,87.80
2017-10-09T09:09:46.527Z,87.00
2017-10-09T09:12:14.874Z,87.30
2017-10-09T09:14:44.897Z,86.70
2017-10-09T09:17:13.937Z,86.70
2017-10-09T09:19:42.271Z,86.60
2017-10-09T09:22:10.765Z,87.00
2017-10-09T09:24:39.015Z,86.00
2017-10-09T09:27:07.271Z,86.60
2017-10-09T09:29:35.568Z,87.00
2017-10-09T09:32:03.877Z,86.60
2017-10-09T09:34:32.363Z,87.60
2017-10-09T09:37:01.774Z,85.60
2017-10-09T09:39:30.361Z,85.60
2017-10-09T09:41:59.420Z,85.70
2017-10-09T09:44:27.691Z,85.70
2017-10-09T09:46:55.945Z,86.10
2017-10-09T09:49:24.982Z,86.80
2017-10-09T09:51:53.259Z,86.80
2017-10-09T09:54:21.855Z,87.40
2017-10-09T09:56:50.095Z,88.00
2017-10-09T09:59:18.412Z,87.50
2017-10-09T10:01:46.658Z,87.00
2017-10-09T10:04:15.705Z,87.00
2017-10-09T10:06:43.951Z,87.00
2017-10-09T10:09:12.218Z,86.00
2017-10-09T10:11:40.490Z,86.40
2017-10-09T10:14:08.882Z,86.60
2017-10-09T10:16:37.302Z,85.80
2017-10-09T10:19:05.583Z,85.80
2017-10-09T10:21:33.832Z,84.70
2017-10-09T10:24:02.074Z,84.50
2017-10-09T10:26:30.357Z,85.40
2017-10-09T10:28:58.689Z,84.50
2017-10-09T10:31:26.983Z,84.90
2017-10-09T10:33:55.256Z,84.20
2017-10-09T10:36:23.572Z,83.50
2017-10-09T10:38:51.804Z,83.10
2017-10-09T10:41:20.070Z,83.10
2017-10-09T10:43:48.314Z,83.30
2017-10-09T10:46:16.682Z,83.00
2017-10-09T10:48:44.959Z,82.30
2017-10-09T10:51:13.246Z,82.80
2017-10-09T10:53:41.492Z,81.70
2017-10-09T10:56:09.760Z,82.90
2017-10-09T10:58:38.779Z,81.40
2017-10-09T11:01:07.044Z,81.30
2017-10-09T11:03:36.063Z,82.40
2017-10-09T11:06:04.461Z,82.40
2017-10-09T11:08:32.712Z,81.10
2017-10-09T11:11:01.746Z,80.10
2017-10-09T11:13:30.021Z,80.00
2017-10-09T11:15:58.275Z,79.10
2017-10-09T11:18:26.532Z,79.40
2017-10-09T11:20:55.563Z,80.00
2017-10-09T11:23:23.846Z,79.30
2017-10-09T11:25:52.102Z,79.90
2017-10-09T11:28:21.153Z,79.80
2017-10-09T11:30:49.535Z,79.80
2017-10-09T11:33:17.808Z,79.60
2017-10-09T11:35:46.084Z,80.00
2017-10-09T11:38:14.347Z,79.20
2017-10-09T11:40:42.617Z,79.80
2017-10-09T11:43:11.736Z,79.30
2017-10-09T11:45:39.987Z,79.10
2017-10-09T11:48:09.028Z,78.60
2017-10-09T11:50:37.289Z,78.60
2017-10-09T11:53:05.601Z,79.70
2017-10-09T11:55:33.870Z,78.60
2017-10-09T11:58:02.155Z,78.70
2017-10-09T12:00:30.434Z,79.30
2017-10-09T12:02:58.701Z,79.00
2017-10-09T12:05:26.956Z,79.50
2017-10-09T12:07:55.989Z,78.80
2017-10-09T12:10:24.279Z,78.70
2017-10-09T12:12:52.546Z,78.60
2017-10-09T12:15:20.793Z,79.20
2017-10-09T12:17:49.853Z,81.00
2017-10-09T12:20:18.094Z,81.00
2017-10-09T12:22:46.637Z,81.20
2017-10-09T12:25:14.907Z,84.20
2017-10-09T12:27:43.171Z,85.50
2017-10-09T12:30:11.450Z,84.80
2017-10-09T12:32:39.741Z,86.40
2017-10-09T12:35:08.026Z,86.40
2017-10-09T12:37:37.351Z,85.60
2017-10-09T12:40:05.727Z,87.00
2017-10-09T12:42:33.997Z,86.10
2017-10-09T12:45:02.261Z,86.10
2017-10-09T12:47:30.521Z,88.20
2017-10-09T12:49:58.811Z,87.10
2017-10-09T12:52:27.064Z,86.50
2017-10-09T12:54:56.203Z,87.00
2017-10-09T12:57:24.458Z,87.00
2017-10-09T12:59:52.738Z,85.20
2017-10-09T13:02:21.281Z,84.70
2017-10-09T13:04:49.634Z,84.80
2017-10-09T13:07:17.865Z,84.70
2017-10-09T13:09:46.925Z,85.60
2017-10-09T13:12:15.194Z,85.60
2017-10-09T13:14:43.482Z,85.50
2017-10-09T13:17:11.732Z,86.40
2017-10-09T13:19:39.982Z,86.60
2017-10-09T13:22:09.009Z,87.40
2017-10-09T13:24:37.310Z,87.50
2017-10-09T13:27:05.558Z,87.80
2017-10-09T13:29:34.579Z,87.60
2017-10-09T13:32:02.830Z,87.60
2017-10-09T13:34:31.863Z,88.90
2017-10-09T13:37:00.699Z,88.90
2017-10-09T13:39:28.959Z,87.20
2017-10-09T13:41:57.201Z,86.70
2017-10-09T13:44:26.228Z,87.80
2017-10-09T13:46:54.534Z,87.10
2017-10-09T13:49:22.795Z,87.20
2017-10-09T13:51:51.079Z,87.30
2017-10-09T13:54:19.361Z,87.20
2017-10-09T13:56:47.591Z,87.20
2017-10-09T13:59:16.741Z,90.10
2017-10-09T14:01:44.991Z,90.00
2017-10-09T14:04:13.230Z,89.50
2017-10-09T14:06:41.495Z,90.50
2017-10-09T14:09:09.758Z,90.90
2017-10-09T14:11:38.019Z,91.80
2017-10-09T14:14:06.367Z,91.70
2017-10-09T14:16:35.390Z,92.50
2017-10-09T14:19:03.628Z,92.60
2017-10-09T14:21:33.413Z,93.60
2017-10-09T14:24:01.654Z,93.60
2017-10-09T14:26:30.769Z,94.10
2017-10-09T14:28:59.779Z,94.40
2017-10-09T14:41:22.631Z,94.80
2017-10-09T14:43:51.839Z,94.90
2017-10-09T14:46:20.102Z,94.90
2017-10-09T14:48:48.346Z,95.20
2017-10-09T14:51:17.529Z,95.50
2017-10-09T14:53:46.379Z,95.30
2017-10-09T14:56:14.692Z,95.30
2017-10-09T14:58:42.930Z,95.20
2017-10-09T15:01:12.006Z,95.60
2017-10-09T15:03:40.259Z,95.60
2017-10-09T15:06:09.016Z,95.80
2017-10-09T15:08:37.270Z,95.60
2017-10-09T15:11:06.303Z,95.60
2017-10-09T15:13:34.547Z,95.60
2017-10-09T15:16:03.576Z,95.50
2017-10-09T15:18:31.942Z,95.50
2017-10-09T15:21:00.362Z,95.30
2017-10-09T15:23:28.615Z,95.10
2017-10-09T15:25:56.864Z,95.20
2017-10-09T15:28:25.204Z,95.50
2017-10-09T15:30:53.490Z,95.70
2017-10-09T15:33:21.843Z,95.80
2017-10-09T15:35:50.152Z,95.80
2017-10-09T15:38:18.411Z,95.90
2017-10-09T15:40:46.651Z,96.10
2017-10-09T15:43:14.917Z,96.30
2017-10-09T15:45:43.175Z,96.30
2017-10-09T15:48:12.376Z,96.40
2017-10-09T15:50:40.651Z,96.40
2017-10-09T15:53:08.946Z,96.30
2017-10-09T15:55:37.243Z,96.10
2017-10-09T15:58:05.496Z,96.00
2017-10-09T16:00:33.743Z,96.00
2017-10-09T16:03:02.766Z,96.30
2017-10-09T16:05:31.008Z,96.30
2017-10-09T16:07:59.344Z,96.40
2017-10-09T16:10:27.616Z,96.70
2017-10-09T16:12:55.910Z,96.40
2017-10-09T16:15:24.199Z,96.40
2017-10-09T16:17:52.455Z,96.40
2017-10-09T16:20:20.757Z,96.60
2017-10-09T16:22:49.819Z,96.60
2017-10-09T16:25:18.821Z,96.50
2017-10-09T16:27:47.092Z,96.40
2017-10-09T16:30:16.105Z,96.60
2017-10-09T16:32:44.364Z,96.60
2017-10-09T16:35:13.407Z,96.80
2017-10-09T16:37:41.671Z,96.80
2017-10-09T16:40:09.931Z,97.00
2017-10-09T16:42:38.963Z,97.00
2017-10-09T16:45:07.220Z,97.00
2017-10-09T16:47:35.527Z,96.80
2017-10-09T16:50:03.776Z,96.80
2017-10-09T16:52:32.807Z,97.00
2017-10-09T16:55:01.115Z,97.00
2017-10-09T16:57:29.365Z,97.10
2017-10-09T16:59:57.650Z,97.10
2017-10-09T17:02:25.942Z,97.20
2017-10-09T17:04:54.203Z,97.00
2017-10-09T17:07:22.455Z,97.20
2017-10-09T17:09:51.486Z,97.40
2017-10-09T17:12:19.747Z,97.40
2017-10-09T17:14:48.050Z,97.50
2017-10-09T17:17:16.299Z,97.60
2017-10-09T17:19:45.332Z,97.40
2017-10-09T17:22:13.593Z,97.40
2017-10-09T17:24:42.136Z,97.30
2017-10-09T17:27:10.374Z,97.30
2017-10-09T17:29:38.670Z,97.40
2017-10-09T17:32:06.919Z,97.40
2017-10-09T17:34:35.377Z,97.50
2017-10-09T17:37:03.644Z,97.40
2017-10-09T17:39:31.909Z,97.40
2017-10-09T17:42:00.162Z,97.40
2017-10-09T17:44:28.424Z,97.50
2017-10-09T17:46:56.664Z,97.40
2017-10-09T17:49:25.004Z,97.20
2017-10-09T17:51:53.262Z,97.10
2017-10-09T17:54:22.295Z,97.10
2017-10-09T17:56:50.547Z,97.10
2017-10-09T17:59:18.783Z,97.10
2017-10-09T18:01:47.054Z,97.10
2017-10-09T18:04:15.292Z,96.80
2017-10-09T18:06:43.612Z,96.60
2017-10-09T18:09:11.871Z,96.60
2017-10-09T18:11:40.185Z,96.90
2017-10-09T18:14:08.577Z,96.80
2017-10-09T18:16:37.648Z,96.60
2017-10-09T18:19:05.916Z,96.60
2017-10-09T18:21:35.021Z,96.50
2017-10-09T18:24:03.273Z,96.40
2017-10-09T18:26:32.457Z,95.50
2017-10-09T18:29:00.754Z,95.50
2017-10-09T18:31:29.771Z,95.10
2017-10-09T18:33:58.368Z,95.10
2017-10-09T18:36:26.628Z,95.00
2017-10-09T18:38:55.340Z,94.80
2017-10-09T18:41:23.602Z,94.80
2017-10-09T18:43:51.920Z,94.60
2017-10-09T18:46:20.188Z,94.70
2017-10-09T18:48:48.435Z,94.80
2017-10-09T18:51:17.463Z,95.00
2017-10-09T18:53:45.724Z,95.00
2017-10-09T18:56:14.012Z,94.90
2017-10-09T18:58:42.262Z,94.70
2017-10-09T19:01:11.288Z,94.10
2017-10-09T19:03:39.543Z,94.10
2017-10-09T19:06:07.884Z,94.30
2017-10-09T19:08:36.152Z,94.40
2017-10-09T19:11:04.406Z,94.30
2017-10-09T19:13:32.682Z,94.40
2017-10-09T19:16:01.691Z,94.10
2017-10-09T19:18:30.012Z,94.10
2017-10-09T19:20:58.275Z,94.20
2017-10-09T19:23:26.559Z,93.70
2017-10-09T19:25:54.845Z,93.70
2017-10-09T19:28:24.156Z,93.40
2017-10-09T19:30:52.403Z,93.60
2017-10-09T19:33:20.668Z,93.30
2017-10-09T19:35:49.673Z,93.50
2017-10-09T19:38:18.702Z,93.40
2017-10-09T19:40:46.961Z,93.40
2017-10-09T19:43:15.277Z,93.40
2017-10-09T19:45:43.534Z,93.80
2017-10-09T19:48:11.940Z,94.00
2017-10-09T19:50:40.188Z,93.90
2017-10-09T19:53:08.521Z,94.00
2017-10-09T19:55:36.775Z,94.10
2017-10-09T19:58:05.053Z,94.00
2017-10-09T20:00:33.301Z,94.10
2017-10-09T20:03:02.340Z,93.40
2017-10-09T20:05:30.590Z,93.40
2017-10-09T20:07:58.847Z,93.50
2017-10-09T20:10:27.883Z,93.60
2017-10-09T20:12:56.135Z,93.90
2017-10-09T20:15:25.175Z,94.00
2017-10-09T20:17:53.414Z,94.00
2017-10-09T20:20:22.464Z,94.10
2017-10-09T20:22:50.704Z,94.10
2017-10-09T20:25:19.794Z,94.00
2017-10-09T20:27:48.819Z,94.10
2017-10-09T20:30:17.123Z,94.10
2017-10-09T20:32:45.403Z,94.10
2017-10-09T20:35:13.678Z,94.10
2017-10-09T20:37:41.960Z,94.20
2017-10-09T20:40:10.271Z,94.10
2017-10-09T20:42:38.522Z,94.00
2017-10-09T20:45:06.805Z,94.00
2017-10-09T20:47:35.091Z,94.00
2017-10-09T20:50:03.351Z,93.80
2017-10-09T20:52:31.611Z,93.80
2017-10-09T20:55:00.740Z,93.90
2017-10-09T20:57:29.024Z,93.90
2017-10-09T20:59:57.314Z,94.00
2017-10-09T21:02:25.902Z,94.10
2017-10-09T21:04:54.170Z,94.10
2017-10-09T21:07:22.419Z,94.20
2017-10-09T21:09:50.694Z,94.20
2017-10-09T21:12:19.708Z,94.80
2017-10-09T21:14:47.979Z,94.80
2017-10-09T21:17:16.990Z,95.00
2017-10-09T21:19:45.288Z,95.00
2017-10-09T21:22:13.817Z,95.20
2017-10-09T21:24:43.075Z,95.50
2017-10-09T21:27:11.388Z,95.50
2017-10-09T21:29:39.750Z,95.70
2017-10-09T21:32:08.034Z,95.80
2017-10-09T21:34:36.289Z,96.00
2017-10-09T21:37:04.729Z,96.10
2017-10-09T21:39:33.029Z,96.20
2017-10-09T21:42:02.061Z,96.40
2017-10-09T21:44:30.341Z,96.40
2017-10-09T21:46:58.619Z,96.40
2017-10-09T21:49:26.906Z,96.60
2017-10-09T21:51:55.178Z,96.50
2017-10-09T21:54:23.418Z,96.60
2017-10-09T21:56:51.671Z,96.80
2017-10-09T21:59:19.914Z,96.80
2017-10-09T22:01:48.170Z,96.90
2017-10-09T22:04:17.179Z,97.30
2017-10-09T22:06:46.242Z,96.90
2017-10-09T22:09:14.493Z,96.90
2017-10-09T22:11:43.050Z,96.90
2017-10-09T22:14:12.151Z,97.00
2017-10-09T22:16:41.415Z,96.90
2017-10-09T22:19:10.409Z,96.80
2017-10-09T22:21:38.706Z,96.80
2017-10-09T22:24:07.097Z,96.70
2017-10-09T22:26:36.195Z,96.80
2017-10-09T22:29:04.496Z,96.80
2017-10-09T22:31:32.907Z,96.80
2017-10-09T22:34:02.238Z,96.80
2017-10-09T22:36:30.608Z,96.80
2017-10-09T22:38:59.035Z,96.70
2017-10-09T22:41:27.624Z,96.70
2017-10-09T22:43:56.185Z,96.70
2017-10-09T22:46:25.590Z,96.60
2017-10-09T22:48:54.797Z,96.60
2017-10-09T22:51:23.483Z,96.70
2017-10-09T22:53:52.073Z,96.80
2017-10-09T22:56:20.596Z,96.90
2017-10-09T22:58:49.141Z,96.90
2017-10-09T23:01:17.625Z,96.80
2017-10-09T23:03:45.980Z,96.80
2017-10-09T23:06:14.247Z,96.60
2017-10-09T23:08:42.774Z,96.50
2017-10-09T23:11:11.094Z,96.50
2017-10-09T23:13:39.350Z,96.40
2017-10-09T23:16:07.590Z,96.40
2017-10-09T23:18:36.883Z,96.40
2017-10-09T23:21:05.508Z,96.50
2017-10-09T23:23:33.995Z,96.50
2017-10-09T23:26:02.350Z,96.40
2017-10-09T23:28:30.760Z,96.30
2017-10-09T23:30:59.011Z,96.40
2017-10-09T23:33:27.383Z,96.30
2017-10-09T23:35:55.657Z,96.20
2017-10-09T23:38:23.967Z,96.30
2017-10-09T23:40:52.226Z,96.20
2017-10-09T23:43:20.493Z,96.20
2017-10-09T23:45:48.838Z,96.40
2017-10-09T23:48:17.078Z,96.40
2017-10-09T23:50:45.349Z,96.50
2017-10-09T23:53:13.583Z,96.50
2017-10-09T23:55:41.851Z,96.50
2017-10-09T23:58:10.094Z,96.40
